Time;durP1;ratioP1;P1;durP2;ratioP2;P2;SDS_P1;SDS_P2;PMS_P1;PMS_P2;Temp;Humidity;BMP_temperature;BMP_pressure;BME280_temperature;BME280_humidity;BME280_pressure;Samples;Min_cycle;Max_cycle;Signal;HPM_P1;HPM_P2
2021/03/14 00:02:25;;;;;;;26.90;20.63;;;;;;;;;;5036504;28;20065;-80
2021/03/14 00:04:51;;;;;;;48.22;30.42;;;;;;;;;;5036161;28;20057;-80
2021/03/14 00:07:17;;;;;;;40.00;28.02;;;;;;;;;;5036504;28;20041;-80
2021/03/14 00:09:43;;;;;;;26.95;19.02;;;;;;;;;;5035949;28;20084;-80
2021/03/14 00:12:09;;;;;;;28.75;21.08;;;;;;;;;;5036065;28;20585;-80
2021/03/14 00:14:35;;;;;;;29.65;20.58;;;;;;;;;;5036084;28;20040;-80
2021/03/14 00:17:01;;;;;;;37.90;25.70;;;;;;;;;;5036224;28;20476;-80
2021/03/14 00:19:27;;;;;;;38.83;25.42;;;;;;;;;;5036229;28;20029;-80
2021/03/14 00:21:54;;;;;;;27.15;19.73;;;;;;;;;;5035956;28;20053;-80
2021/03/14 00:24:20;;;;;;;21.33;15.85;;;;;;;;;;5036033;28;20029;-80
2021/03/14 00:26:46;;;;;;;20.20;14.45;;;;;;;;;;5035926;28;20025;-80
2021/03/14 00:29:12;;;;;;;15.15;12.27;;;;;;;;;;5035921;28;20025;-80
2021/03/14 00:31:38;;;;;;;16.63;12.60;;;;;;;;;;5035976;28;20084;-80
2021/03/14 00:34:04;;;;;;;15.05;12.10;;;;;;;;;;5035725;28;20088;-78
2021/03/14 00:36:32;;;;;;;21.67;15.52;;;;;;;;;;5035677;28;20032;-78
2021/03/14 00:38:58;;;;;;;23.85;14.98;;;;;;;;;;5034651;28;20424;-79
2021/03/14 00:41:24;;;;;;;23.60;14.82;;;;;;;;;;5035597;28;20484;-79
2021/03/14 00:43:50;;;;;;;19.65;14.85;;;;;;;;;;5050949;28;20037;-79
2021/03/14 00:46:16;;;;;;;19.00;13.90;;;;;;;;;;5050868;28;20086;-79
2021/03/14 00:48:43;;;;;;;28.73;18.92;;;;;;;;;;5035492;28;20033;-79
2021/03/14 00:51:09;;;;;;;28.40;18.88;;;;;;;;;;5035520;28;20026;-79
2021/03/14 00:53:35;;;;;;;19.25;14.23;;;;;;;;;;5035285;28;20389;-79
2021/03/14 00:56:01;;;;;;;17.02;11.90;;;;;;;;;;5035613;28;20104;-79
2021/03/14 00:58:27;;;;;;;17.40;12.15;;;;;;;;;;5035701;28;20483;-80
2021/03/14 01:00:53;;;;;;;19.92;14.82;;;;;;;;;;5035243;28;20033;-80
2021/03/14 01:03:19;;;;;;;56.47;38.20;;;;;;;;;;5035203;28;20021;-80
2021/03/14 01:05:46;;;;;;;25.45;18.55;;;;;;;;;;5035275;28;20029;-80
2021/03/14 01:08:12;;;;;;;19.70;14.23;;;;;;;;;;5035237;28;20033;-80
2021/03/14 01:10:38;;;;;;;23.00;15.77;;;;;;;;;;5034739;28;20053;-80
2021/03/14 01:13:04;;;;;;;28.75;18.77;;;;;;;;;;5035258;28;20033;-80
2021/03/14 01:15:31;;;;;;;22.38;16.15;;;;;;;;;;5035035;28;20029;-80
2021/03/14 01:17:57;;;;;;;25.65;17.77;;;;;;;;;;5034853;28;20029;-80
2021/03/14 01:20:23;;;;;;;23.83;16.88;;;;;;;;;;5034942;28;20040;-80
2021/03/14 01:22:49;;;;;;;26.05;19.33;;;;;;;;;;5034899;28;20029;-80
2021/03/14 01:25:16;;;;;;;19.75;15.07;;;;;;;;;;5034778;28;20026;-80
2021/03/14 01:27:45;;;;;;;19.65;14.30;;;;;;;;;;5034750;28;20080;-80
2021/03/14 01:30:12;;;;;;;20.20;14.85;;;;;;;;;;5034661;28;20033;-80
2021/03/14 01:32:38;;;;;;;33.42;24.50;;;;;;;;;;5034037;28;20029;-80
2021/03/14 01:35:04;;;;;;;57.67;40.00;;;;;;;;;;5034729;28;20048;-80
2021/03/14 01:37:30;;;;;;;42.35;30.25;;;;;;;;;;5034383;28;20025;-80
2021/03/14 01:39:57;;;;;;;41.33;29.33;;;;;;;;;;5034538;28;20033;-80
2021/03/14 01:42:29;;;;;;;36.08;23.33;;;;;;;;;;5034493;28;20068;-80
2021/03/14 01:44:55;;;;;;;29.10;19.25;;;;;;;;;;5034421;28;20029;-80
2021/03/14 01:47:23;;;;;;;30.60;19.77;;;;;;;;;;5034402;28;20029;-80
2021/03/14 01:49:49;;;;;;;25.88;18.05;;;;;;;;;;5034349;28;20028;-80
2021/03/14 01:52:15;;;;;;;36.83;27.58;;;;;;;;;;5034266;28;20125;-80
2021/03/14 01:54:41;;;;;;;38.72;27.27;;;;;;;;;;5034006;28;20112;-80
2021/03/14 01:57:08;;;;;;;41.60;27.60;;;;;;;;;;5034205;28;20079;-80
2021/03/14 01:59:34;;;;;;;34.97;24.60;;;;;;;;;;5034159;28;20502;-80
2021/03/14 02:02:00;;;;;;;27.05;19.65;;;;;;;;;;5034289;28;20420;-80
2021/03/14 02:04:27;;;;;;;25.88;17.42;;;;;;;;;;5034196;28;20026;-80
2021/03/14 02:06:53;;;;;;;22.63;15.95;;;;;;;;;;5034317;28;20065;-80
2021/03/14 02:09:19;;;;;;;50.38;32.75;;;;;;;;;;5034081;28;20468;-80
2021/03/14 02:11:46;;;;;;;90.13;48.42;;;;;;;;;;5033875;28;20136;-80
2021/03/14 02:14:14;;;;;;;75.78;44.03;;;;;;;;;;5033971;28;20461;-80
2021/03/14 02:16:42;;;;;;;74.32;45.53;;;;;;;;;;5034008;28;20037;-80
2021/03/14 02:19:13;;;;;;;61.17;41.05;;;;;;;;;;5033914;28;20165;-80
2021/03/14 02:21:40;;;;;;;31.17;21.77;;;;;;;;;;5033988;28;20028;-80
2021/03/14 02:24:13;;;;;;;25.05;18.25;;;;;;;;;;5033875;28;20044;-80
2021/03/14 02:26:40;;;;;;;37.23;27.27;;;;;;;;;;5033661;28;20495;-81
2021/03/14 02:29:08;;;;;;;32.13;23.85;;;;;;;;;;5033772;28;20251;-80
2021/03/14 02:31:34;;;;;;;29.60;21.85;;;;;;;;;;5033678;28;20053;-79
2021/03/14 02:34:11;;;;;;;26.77;19.17;;;;;;;;;;5033628;28;20041;-81
2021/03/14 02:36:40;;;;;;;23.02;16.17;;;;;;;;;;5033635;28;20044;-80
2021/03/14 02:39:09;;;;;;;22.13;16.25;;;;;;;;;;5048889;28;20111;-81
2021/03/14 02:41:36;;;;;;;22.73;16.35;;;;;;;;;;5033617;28;20469;-79
2021/03/14 02:44:02;;;;;;;33.53;26.90;;;;;;;;;;5032938;28;20028;-80
2021/03/14 02:46:28;;;;;;;20.60;15.35;;;;;;;;;;5033507;28;20385;-79
2021/03/14 02:48:55;;;;;;;21.38;15.85;;;;;;;;;;5033562;28;20040;-79
2021/03/14 02:51:22;;;;;;;19.40;13.63;;;;;;;;;;5048704;28;20393;-79
2021/03/14 02:53:48;;;;;;;17.30;13.35;;;;;;;;;;5033344;28;20029;-80
2021/03/14 02:56:14;;;;;;;19.05;12.93;;;;;;;;;;5033362;28;20039;-80
2021/03/14 02:58:41;;;;;;;19.27;13.25;;;;;;;;;;5033294;28;20030;-80
2021/03/14 03:01:08;;;;;;;21.83;15.13;;;;;;;;;;5033296;28;20025;-80
2021/03/14 03:03:34;;;;;;;18.75;14.45;;;;;;;;;;5033212;28;20079;-79
2021/03/14 03:06:01;;;;;;;19.35;15.27;;;;;;;;;;5033512;28;20022;-79
2021/03/14 03:08:28;;;;;;;16.95;12.88;;;;;;;;;;5033238;28;20044;-80
2021/03/14 03:10:56;;;;;;;19.08;12.40;;;;;;;;;;5033106;28;20058;-81
2021/03/14 03:13:23;;;;;;;16.33;12.55;;;;;;;;;;5031923;28;20112;-80
2021/03/14 03:15:50;;;;;;;17.90;13.80;;;;;;;;;;5033403;28;20026;-80
2021/03/14 03:18:16;;;;;;;16.83;13.00;;;;;;;;;;5032982;28;20026;-80
2021/03/14 03:20:42;;;;;;;17.13;12.65;;;;;;;;;;5033242;28;20077;-80
2021/03/14 03:23:09;;;;;;;19.95;13.27;;;;;;;;;;5033229;28;20491;-80
2021/03/14 03:25:35;;;;;;;17.63;12.57;;;;;;;;;;5033107;28;20025;-80
2021/03/14 03:28:01;;;;;;;15.90;12.35;;;;;;;;;;5032945;28;20064;-80
2021/03/14 03:30:28;;;;;;;16.80;11.40;;;;;;;;;;5033051;28;20033;-80
2021/03/14 03:32:55;;;;;;;16.50;12.52;;;;;;;;;;5033122;28;20029;-80
2021/03/14 03:35:21;;;;;;;17.15;12.40;;;;;;;;;;5032962;28;20039;-80
2021/03/14 03:37:48;;;;;;;19.05;13.25;;;;;;;;;;5032934;28;20029;-80
2021/03/14 03:40:16;;;;;;;23.17;14.43;;;;;;;;;;5032824;28;20025;-80
2021/03/14 03:42:48;;;;;;;22.67;15.95;;;;;;;;;;5033416;28;20029;-80
2021/03/14 03:45:15;;;;;;;20.20;14.65;;;;;;;;;;5032894;28;20048;-80
2021/03/14 03:47:42;;;;;;;19.98;15.10;;;;;;;;;;5032886;28;20029;-80
2021/03/14 03:50:09;;;;;;;22.48;15.68;;;;;;;;;;5032657;28;20018;-80
2021/03/14 03:52:36;;;;;;;20.23;15.07;;;;;;;;;;5032812;28;20021;-80
2021/03/14 03:55:02;;;;;;;21.05;14.98;;;;;;;;;;5032779;28;20100;-80
2021/03/14 03:57:28;;;;;;;19.05;14.55;;;;;;;;;;5036629;28;20033;-80
2021/03/14 03:59:55;;;;;;;18.50;13.57;;;;;;;;;;5036376;28;20430;-80
2021/03/14 04:02:24;;;;;;;21.17;14.40;;;;;;;;;;5036361;28;20108;-80
2021/03/14 04:04:50;;;;;;;18.95;14.55;;;;;;;;;;5036460;28;20022;-80
2021/03/14 04:07:16;;;;;;;18.88;13.85;;;;;;;;;;5051719;28;20164;-80
2021/03/14 04:09:46;;;;;;;18.70;14.35;;;;;;;;;;5051325;28;20061;-80
2021/03/14 04:12:12;;;;;;;18.88;13.13;;;;;;;;;;5036193;28;20057;-80
2021/03/14 04:14:39;;;;;;;20.60;13.63;;;;;;;;;;5036087;28;20539;-80
2021/03/14 04:17:05;;;;;;;17.13;13.45;;;;;;;;;;5036320;28;20084;-80
2021/03/14 04:19:34;;;;;;;18.90;13.80;;;;;;;;;;5036171;28;20025;-80
2021/03/14 04:22:00;;;;;;;17.50;12.13;;;;;;;;;;5036021;28;20473;-80
2021/03/14 04:24:29;;;;;;;28.23;21.20;;;;;;;;;;5035857;28;20476;-80
2021/03/14 04:26:55;;;;;;;31.45;23.52;;;;;;;;;;5035903;28;20108;-80
2021/03/14 04:29:25;;;;;;;33.67;24.02;;;;;;;;;;5035852;28;20064;-80
2021/03/14 04:31:51;;;;;;;18.63;13.05;;;;;;;;;;5036031;28;20028;-80
2021/03/14 04:34:20;;;;;;;16.88;13.40;;;;;;;;;;5035751;28;20116;-80
2021/03/14 04:36:47;;;;;;;20.83;13.95;;;;;;;;;;5035817;28;20026;-80
2021/03/14 04:39:14;;;;;;;16.75;12.02;;;;;;;;;;5035725;28;20400;-80
2021/03/14 04:41:42;;;;;;;17.27;12.80;;;;;;;;;;5035646;28;20025;-80
2021/03/14 04:44:08;;;;;;;18.05;13.13;;;;;;;;;;5050893;28;20021;-80
2021/03/14 04:46:34;;;;;;;20.58;15.75;;;;;;;;;;5035514;28;20036;-80
2021/03/14 04:49:01;;;;;;;24.00;16.83;;;;;;;;;;5035480;28;20033;-80
2021/03/14 04:51:28;;;;;;;19.58;15.82;;;;;;;;;;5035529;28;20030;-80
2021/03/14 04:53:55;;;;;;;22.73;15.82;;;;;;;;;;5035574;28;20037;-80
2021/03/14 04:56:22;;;;;;;18.23;14.57;;;;;;;;;;5035440;28;20025;-80
2021/03/14 04:58:49;;;;;;;20.88;14.52;;;;;;;;;;5035406;28;20029;-80
2021/03/14 05:01:16;;;;;;;19.58;15.50;;;;;;;;;;5035334;28;20048;-80
2021/03/14 05:03:44;;;;;;;25.13;18.05;;;;;;;;;;5035279;28;20029;-80
2021/03/14 05:06:11;;;;;;;23.02;15.38;;;;;;;;;;5035175;28;20112;-80
2021/03/14 05:08:37;;;;;;;22.50;15.88;;;;;;;;;;5034400;28;20105;-80
2021/03/14 05:11:03;;;;;;;23.42;16.08;;;;;;;;;;5035020;28;20473;-80
2021/03/14 05:13:31;;;;;;;20.55;15.30;;;;;;;;;;5050186;28;20044;-80
2021/03/14 05:15:57;;;;;;;32.45;23.25;;;;;;;;;;5035041;28;20025;-80
2021/03/14 05:18:23;;;;;;;47.33;31.05;;;;;;;;;;5034808;28;20025;-80
2021/03/14 05:20:50;;;;;;;31.83;22.77;;;;;;;;;;5035162;28;20385;-80
2021/03/14 05:23:16;;;;;;;72.85;41.00;;;;;;;;;;5034798;28;20032;-80
2021/03/14 05:25:43;;;;;;;91.82;46.63;;;;;;;;;;5035038;28;20111;-80
2021/03/14 05:28:09;;;;;;;67.88;39.05;;;;;;;;;;5034842;28;20024;-80
2021/03/14 05:30:35;;;;;;;74.50;44.53;;;;;;;;;;5050041;28;20029;-80
2021/03/14 05:33:02;;;;;;;60.13;36.30;;;;;;;;;;5034591;28;20495;-80
2021/03/14 05:35:29;;;;;;;41.28;26.17;;;;;;;;;;5034501;28;20034;-80
2021/03/14 05:37:56;;;;;;;39.75;27.90;;;;;;;;;;5034472;28;20113;-80
2021/03/14 05:40:23;;;;;;;35.75;26.50;;;;;;;;;;5034519;28;20024;-80
2021/03/14 05:42:49;;;;;;;36.45;25.17;;;;;;;;;;5034681;28;20032;-80
2021/03/14 05:45:16;;;;;;;38.40;26.67;;;;;;;;;;5034417;28;20036;-80
2021/03/14 05:47:42;;;;;;;48.45;32.92;;;;;;;;;;5034362;28;20483;-80
2021/03/14 05:50:10;;;;;;;64.20;39.28;;;;;;;;;;5034428;28;20029;-80
2021/03/14 05:52:39;;;;;;;48.25;33.45;;;;;;;;;;5034291;28;20025;-80
2021/03/14 05:55:05;;;;;;;45.03;29.88;;;;;;;;;;5034336;28;20091;-80
2021/03/14 05:57:32;;;;;;;29.02;21.30;;;;;;;;;;5034234;28;20029;-80
2021/03/14 05:59:58;;;;;;;39.13;30.10;;;;;;;;;;5034075;28;20030;-80
2021/03/14 06:02:27;;;;;;;28.38;21.98;;;;;;;;;;5033988;28;20127;-80
2021/03/14 06:04:54;;;;;;;33.65;23.92;;;;;;;;;;5034085;28;20021;-80
2021/03/14 06:07:21;;;;;;;29.70;22.10;;;;;;;;;;5034569;28;20468;-81
2021/03/14 06:09:48;;;;;;;36.42;23.85;;;;;;;;;;5033953;28;20083;-80
2021/03/14 06:12:14;;;;;;;33.83;24.08;;;;;;;;;;5033794;28;20057;-78
2021/03/14 06:14:40;;;;;;;38.78;26.25;;;;;;;;;;5033709;28;20033;-81
2021/03/14 06:17:07;;;;;;;38.25;29.92;;;;;;;;;;5049205;28;20033;-80
2021/03/14 06:19:33;;;;;;;35.38;24.17;;;;;;;;;;5033593;28;20105;-81
2021/03/14 06:22:18;;;;;;;43.25;28.17;;;;;;;;;;5033692;28;20473;-80
2021/03/14 06:24:45;;;;;;;41.67;28.27;;;;;;;;;;5033801;28;20083;-82
2021/03/14 06:27:11;;;;;;;46.75;31.10;;;;;;;;;;5033625;28;20053;-80
2021/03/14 06:29:39;;;;;;;38.75;27.08;;;;;;;;;;5033708;28;20052;-81
2021/03/14 06:32:06;;;;;;;42.65;27.90;;;;;;;;;;5033637;28;20036;-79
2021/03/14 06:34:32;;;;;;;41.33;27.42;;;;;;;;;;5033539;28;20508;-81
2021/03/14 06:36:59;;;;;;;42.33;29.33;;;;;;;;;;5033550;28;20068;-83
2021/03/14 06:39:27;;;;;;;41.88;29.05;;;;;;;;;;5033462;28;20029;-80
2021/03/14 06:41:53;;;;;;;40.05;27.85;;;;;;;;;;5033524;28;20029;-80
2021/03/14 06:44:38;;;;;;;40.42;27.15;;;;;;;;;;5033660;28;20040;-81
2021/03/14 06:47:05;;;;;;;44.95;30.50;;;;;;;;;;5033574;28;20029;-81
2021/03/14 06:49:35;;;;;;;44.63;28.80;;;;;;;;;;5048772;28;20028;-79
2021/03/14 06:52:02;;;;;;;40.42;26.67;;;;;;;;;;5033419;28;20074;-78
2021/03/14 06:54:28;;;;;;;29.90;22.00;;;;;;;;;;5033260;28;20033;-78
2021/03/14 06:56:58;;;;;;;32.35;20.30;;;;;;;;;;5033424;28;20029;-79
2021/03/14 06:59:24;;;;;;;27.08;19.65;;;;;;;;;;5033245;28;20353;-78
2021/03/14 07:02:09;;;;;;;26.35;18.67;;;;;;;;;;5033302;28;20031;-79
2021/03/14 07:04:35;;;;;;;;;;;;;;;;;;5033841;28;20021;-78
2021/03/14 07:07:01;;;;;;;49.28;32.15;;;;;;;;;;5033359;28;20315;-79
2021/03/14 07:09:28;;;;;;;50.53;35.05;;;;;;;;;;5033074;28;20037;-79
2021/03/14 07:11:54;;;;;;;42.80;28.15;;;;;;;;;;5033045;28;20546;-79
2021/03/14 07:14:20;;;;;;;46.08;28.15;;;;;;;;;;5033067;28;20104;-79
2021/03/14 07:16:54;;;;;;;47.75;32.30;;;;;;;;;;5033200;28;20057;-79
2021/03/14 07:19:30;;;;;;;34.25;25.67;;;;;;;;;;5033108;28;20037;-79
2021/03/14 07:22:06;;;;;;;21.90;15.55;;;;;;;;;;5033067;28;20026;-78
2021/03/14 07:24:42;;;;;;;31.50;22.48;;;;;;;;;;5033279;28;20443;-79
2021/03/14 07:27:09;;;;;;;20.73;15.52;;;;;;;;;;5033042;28;20380;-78
2021/03/14 07:29:35;;;;;;;20.13;14.90;;;;;;;;;;5048409;28;20036;-79
2021/03/14 07:32:03;;;;;;;21.08;14.13;;;;;;;;;;5036725;28;20349;-78
2021/03/14 07:34:29;;;;;;;22.80;17.83;;;;;;;;;;5036883;28;20063;-78
2021/03/14 07:36:55;;;;;;;24.50;16.67;;;;;;;;;;5036964;28;20105;-78
2021/03/14 07:39:22;;;;;;;19.65;16.48;;;;;;;;;;5036837;28;20542;-78
2021/03/14 07:41:48;;;;;;;21.80;16.05;;;;;;;;;;5036868;28;20066;-79
2021/03/14 07:44:17;;;;;;;18.70;13.07;;;;;;;;;;5036664;28;20105;-78
2021/03/14 07:46:44;;;;;;;19.55;16.27;;;;;;;;;;5036732;28;20380;-79
2021/03/14 07:49:14;;;;;;;18.55;15.07;;;;;;;;;;5036680;28;20021;-79
2021/03/14 07:51:43;;;;;;;18.10;13.80;;;;;;;;;;5036510;28;20487;-79
2021/03/14 07:54:11;;;;;;;17.85;14.38;;;;;;;;;;5036513;28;20057;-78
2021/03/14 07:56:39;;;;;;;17.63;13.52;;;;;;;;;;5036612;28;20025;-79
2021/03/14 07:59:06;;;;;;;20.35;12.75;;;;;;;;;;5051730;28;20452;-78
2021/03/14 08:01:32;;;;;;;18.77;13.77;;;;;;;;;;5036519;28;20033;-79
2021/03/14 08:03:59;;;;;;;20.02;14.60;;;;;;;;;;5036519;28;20022;-79
2021/03/14 08:06:44;;;;;;;18.63;15.32;;;;;;;;;;5036384;28;20064;-78
2021/03/14 08:09:10;;;;;;;19.70;15.98;;;;;;;;;;5036284;28;20025;-79
2021/03/14 08:11:36;;;;;;;20.50;16.65;;;;;;;;;;5036054;28;20124;-78
2021/03/14 08:14:03;;;;;;;20.42;16.25;;;;;;;;;;5036212;28;20496;-78
2021/03/14 08:16:29;;;;;;;20.38;16.08;;;;;;;;;;5036131;28;20507;-79
2021/03/14 08:18:57;;;;;;;21.35;16.88;;;;;;;;;;5036217;28;20075;-78
2021/03/14 08:21:23;;;;;;;21.80;17.20;;;;;;;;;;5036055;28;20021;-78
2021/03/14 08:23:50;;;;;;;21.55;16.30;;;;;;;;;;5036075;28;20108;-79
2021/03/14 08:26:16;;;;;;;22.48;16.88;;;;;;;;;;5035933;28;20029;-79
2021/03/14 08:28:52;;;;;;;24.48;16.38;;;;;;;;;;5036030;28;20026;-79
2021/03/14 08:31:36;;;;;;;21.58;16.00;;;;;;;;;;5035895;28;20057;-79
2021/03/14 08:34:02;;;;;;;19.20;15.52;;;;;;;;;;5035672;28;20021;-79
2021/03/14 08:36:35;;;;;;;22.48;16.20;;;;;;;;;;5035578;28;20040;-79
2021/03/14 08:39:02;;;;;;;23.73;16.13;;;;;;;;;;5035568;28;20480;-79
2021/03/14 08:41:39;;;;;;;20.42;16.10;;;;;;;;;;5035566;28;20515;-80
2021/03/14 08:44:09;;;;;;;20.73;16.02;;;;;;;;;;5035446;28;20481;-79
2021/03/14 08:46:54;;;;;;;22.27;17.23;;;;;;;;;;5035662;28;20108;-80
2021/03/14 08:49:24;;;;;;;21.77;17.95;;;;;;;;;;5035492;28;20021;-82
2021/03/14 08:51:51;;;;;;;21.42;17.17;;;;;;;;;;5035619;28;20100;-82
2021/03/14 08:54:24;;;;;;;22.60;16.40;;;;;;;;;;5035364;28;20044;-83
2021/03/14 08:56:54;;;;;;;21.95;17.40;;;;;;;;;;5035447;28;20435;-84
2021/03/14 08:59:20;;;;;;;20.83;16.40;;;;;;;;;;5035346;28;20029;-83
2021/03/14 09:01:51;;;;;;;20.73;15.88;;;;;;;;;;5035437;28;20469;-84
2021/03/14 09:04:20;;;;;;;23.08;19.38;;;;;;;;;;5035217;28;20033;-83
2021/03/14 09:06:47;;;;;;;21.65;16.23;;;;;;;;;;5035186;28;20032;-82
2021/03/14 09:09:20;;;;;;;23.48;17.40;;;;;;;;;;5034962;28;20056;-83
2021/03/14 09:12:05;;;;;;;19.35;14.65;;;;;;;;;;5034866;28;20049;-84
2021/03/14 09:14:31;;;;;;;;;;;;;;;;;;5035540;28;20366;-83
2021/03/14 09:17:02;;;;;;;22.10;15.93;;;;;;;;;;5034875;28;19920;-84
2021/03/14 09:19:46;;;;;;;16.40;14.32;;;;;;;;;;5034999;28;20469;-83
2021/03/14 09:22:24;;;;;;;19.70;14.05;;;;;;;;;;5034919;28;20491;-84
2021/03/14 09:24:51;;;;;;;19.88;15.07;;;;;;;;;;5034926;28;20040;-83
2021/03/14 09:27:25;;;;;;;17.10;14.13;;;;;;;;;;5034971;28;20031;-84
2021/03/14 09:29:58;;;;;;;16.45;13.32;;;;;;;;;;5034947;28;20029;-83
2021/03/14 09:32:43;;;;;;;20.30;14.15;;;;;;;;;;5034797;28;20384;-84
2021/03/14 09:35:15;;;;;;;18.42;16.02;;;;;;;;;;5034660;28;20404;-84
2021/03/14 09:37:41;;;;;;;24.13;17.33;;;;;;;;;;5034605;28;20100;-83
2021/03/14 09:40:14;;;;;;;23.23;16.13;;;;;;;;;;5034558;28;20028;-83
2021/03/14 09:42:40;;;;;;;28.38;20.27;;;;;;;;;;5034600;28;20026;-84
2021/03/14 09:45:07;;;;;;;19.30;15.85;;;;;;;;;;5034424;28;20104;-84
2021/03/14 09:47:33;;;;;;;27.27;19.20;;;;;;;;;;5049847;28;20381;-82
2021/03/14 09:50:04;;;;;;;22.88;18.05;;;;;;;;;;5034409;28;20025;-84
2021/03/14 09:52:31;;;;;;;19.75;16.65;;;;;;;;;;5034325;28;20021;-84
2021/03/14 09:54:57;;;;;;;20.77;17.15;;;;;;;;;;5033774;28;20040;-85
2021/03/14 09:57:23;;;;;;;17.52;13.80;;;;;;;;;;5049561;28;20029;-84
2021/03/14 09:59:50;;;;;;;16.80;13.40;;;;;;;;;;5034197;28;20513;-84
2021/03/14 10:02:16;;;;;;;17.38;13.85;;;;;;;;;;5034179;28;20074;-83
2021/03/14 10:04:47;;;;;;;15.38;12.25;;;;;;;;;;5034138;28;20542;-84
2021/03/14 10:07:27;;;;;;;16.33;13.00;;;;;;;;;;5034057;28;20025;-84
2021/03/14 10:09:53;;;;;;;18.60;12.95;;;;;;;;;;5049234;28;20392;-84
2021/03/14 10:12:19;;;;;;;18.77;13.25;;;;;;;;;;5048987;28;20578;-85
2021/03/14 10:14:46;;;;;;;16.08;12.02;;;;;;;;;;5033917;28;20388;-84
2021/03/14 10:17:12;;;;;;;13.70;11.65;;;;;;;;;;5033968;28;20029;-84
2021/03/14 10:19:39;;;;;;;11.93;9.68;;;;;;;;;;5033947;28;20025;-84
2021/03/14 10:22:05;;;;;;;12.35;11.00;;;;;;;;;;5033945;28;20061;-84
2021/03/14 10:24:32;;;;;;;19.35;14.25;;;;;;;;;;5033840;28;20480;-84
2021/03/14 10:26:58;;;;;;;17.27;13.32;;;;;;;;;;5049007;28;20067;-86
2021/03/14 10:29:28;;;;;;;13.90;9.75;;;;;;;;;;5033706;28;20021;-84
2021/03/14 10:31:55;;;;;;;12.10;9.93;;;;;;;;;;5033674;28;20033;-86
2021/03/14 10:34:22;;;;;;;9.35;6.50;;;;;;;;;;5033549;28;20084;-84
2021/03/14 10:36:48;;;;;;;9.20;6.68;;;;;;;;;;5033524;28;20052;-85
2021/03/14 10:39:14;;;;;;;8.90;7.53;;;;;;;;;;5033609;28;20473;-86
2021/03/14 10:41:45;;;;;;;9.15;6.85;;;;;;;;;;5033560;28;20029;-85
2021/03/14 10:44:12;;;;;;;9.88;7.18;;;;;;;;;;5033452;28;20022;-85
2021/03/14 10:46:39;;;;;;;12.82;8.23;;;;;;;;;;5033441;28;20076;-86
2021/03/14 10:49:12;;;;;;;7.80;5.70;;;;;;;;;;5033443;28;20026;-86
2021/03/14 10:51:39;;;;;;;8.82;7.57;;;;;;;;;;5032220;28;20045;-83
2021/03/14 10:54:10;;;;;;;7.22;5.70;;;;;;;;;;5031990;28;20052;-84
2021/03/14 10:56:38;;;;;;;6.85;5.07;;;;;;;;;;5033362;28;20493;-85
2021/03/14 10:59:05;;;;;;;7.63;6.15;;;;;;;;;;5033376;28;20029;-85
2021/03/14 11:01:42;;;;;;;9.63;7.25;;;;;;;;;;5033326;28;20029;-85
2021/03/14 11:04:08;;;;;;;7.07;6.03;;;;;;;;;;5033246;28;20389;-83
2021/03/14 11:06:35;;;;;;;7.63;5.65;;;;;;;;;;5036096;28;20033;-86
2021/03/14 11:09:20;;;;;;;9.10;6.32;;;;;;;;;;5037332;28;20064;-85
2021/03/14 11:11:47;;;;;;;7.18;6.47;;;;;;;;;;5037377;28;20057;-85
2021/03/14 11:14:32;;;;;;;11.02;6.40;;;;;;;;;;5037563;28;20056;-84
2021/03/14 11:17:05;;;;;;;10.05;6.70;;;;;;;;;;5037068;28;20537;-87
2021/03/14 11:19:31;;;;;;;9.85;8.43;;;;;;;;;;5037218;28;20533;-85
2021/03/14 11:22:03;;;;;;;9.75;6.90;;;;;;;;;;5037188;28;20437;-88
2021/03/14 11:24:29;;;;;;;9.52;6.93;;;;;;;;;;5037277;28;20052;-85
2021/03/14 11:26:57;;;;;;;5.65;4.20;;;;;;;;;;5037039;28;20032;-84
2021/03/14 11:29:23;;;;;;;5.28;4.78;;;;;;;;;;5036886;28;20036;-85
2021/03/14 11:31:50;;;;;;;7.32;5.72;;;;;;;;;;5036952;28;20469;-85
2021/03/14 11:34:16;;;;;;;6.28;5.53;;;;;;;;;;5036823;28;20099;-85
2021/03/14 11:36:42;;;;;;;5.95;3.90;;;;;;;;;;5036947;28;20491;-84
2021/03/14 11:39:08;;;;;;;6.32;4.20;;;;;;;;;;5035661;28;20036;-86
2021/03/14 11:41:35;;;;;;;5.13;4.35;;;;;;;;;;5036848;28;20063;-85
2021/03/14 11:44:01;;;;;;;5.82;4.55;;;;;;;;;;5036710;28;20022;-84
2021/03/14 11:46:28;;;;;;;6.65;4.22;;;;;;;;;;5036824;28;20036;-84
2021/03/14 11:48:54;;;;;;;6.15;4.72;;;;;;;;;;5036692;28;20067;-86
2021/03/14 11:51:21;;;;;;;5.80;4.15;;;;;;;;;;5036713;28;20532;-83
2021/03/14 11:53:47;;;;;;;6.57;4.05;;;;;;;;;;5035070;28;20492;-86
2021/03/14 11:56:13;;;;;;;6.63;3.72;;;;;;;;;;5036607;28;20025;-87
2021/03/14 11:58:40;;;;;;;4.32;3.78;;;;;;;;;;5036494;28;20036;-82
2021/03/14 12:01:06;;;;;;;7.72;4.43;;;;;;;;;;5036601;28;20499;-87
2021/03/14 12:03:32;;;;;;;6.82;4.05;;;;;;;;;;5036434;28;20061;-83
2021/03/14 12:05:58;;;;;;;5.40;3.20;;;;;;;;;;5036376;28;20082;-85
2021/03/14 12:08:24;;;;;;;4.28;3.30;;;;;;;;;;5036366;28;20108;-85
2021/03/14 12:10:51;;;;;;;4.07;3.35;;;;;;;;;;5036053;28;20049;-87
2021/03/14 12:13:17;;;;;;;4.15;3.50;;;;;;;;;;5036268;28;20033;-86
2021/03/14 12:15:44;;;;;;;5.43;3.47;;;;;;;;;;5035996;28;20043;-88
2021/03/14 12:18:10;;;;;;;5.85;4.13;;;;;;;;;;5036019;28;20049;-84
2021/03/14 12:20:37;;;;;;;5.20;3.15;;;;;;;;;;5036155;28;20435;-85
2021/03/14 12:23:04;;;;;;;5.00;3.38;;;;;;;;;;5036318;28;20052;-85
2021/03/14 12:25:30;;;;;;;5.03;3.55;;;;;;;;;;5035885;28;20551;-86
2021/03/14 12:27:56;;;;;;;4.75;3.30;;;;;;;;;;5036139;28;20109;-84
2021/03/14 12:30:22;;;;;;;4.10;2.80;;;;;;;;;;5035988;28;20028;-87
2021/03/14 12:32:48;;;;;;;5.43;3.38;;;;;;;;;;5035889;28;20032;-83
2021/03/14 12:35:14;;;;;;;8.75;4.28;;;;;;;;;;5035601;28;20110;-83
2021/03/14 12:37:41;;;;;;;4.45;3.05;;;;;;;;;;5035738;28;20097;-83
2021/03/14 12:40:08;;;;;;;9.15;3.97;;;;;;;;;;5035672;28;20026;-84
2021/03/14 12:42:34;;;;;;;5.22;3.53;;;;;;;;;;5035979;28;20025;-83
2021/03/14 12:45:00;;;;;;;3.58;2.47;;;;;;;;;;5035548;28;20026;-83
2021/03/14 12:47:26;;;;;;;4.15;2.78;;;;;;;;;;5035604;28;20037;-84
2021/03/14 12:49:55;;;;;;;3.20;2.40;;;;;;;;;;5035513;28;20033;-83
2021/03/14 12:52:21;;;;;;;3.53;2.45;;;;;;;;;;5035503;28;20036;-83
2021/03/14 12:54:47;;;;;;;4.25;2.90;;;;;;;;;;5033916;28;20098;-83
2021/03/14 12:57:13;;;;;;;3.53;3.22;;;;;;;;;;5035546;28;20052;-83
2021/03/14 12:59:39;;;;;;;4.55;2.80;;;;;;;;;;5035287;28;20031;-83
2021/03/14 13:02:46;;;;;;;3.58;2.40;;;;;;;;;;5035435;28;20093;-83
2021/03/14 13:05:12;;;;;;;4.32;2.70;;;;;;;;;;5034514;28;20040;-83
2021/03/14 13:07:38;;;;;;;3.53;2.95;;;;;;;;;;5035253;28;20033;-83
2021/03/14 13:10:05;;;;;;;8.45;3.65;;;;;;;;;;5034898;28;20108;-83
2021/03/14 13:12:31;;;;;;;8.85;3.67;;;;;;;;;;5035150;28;20029;-83
2021/03/14 13:14:57;;;;;;;5.03;3.28;;;;;;;;;;5034944;28;20048;-83
2021/03/14 13:17:24;;;;;;;5.88;2.90;;;;;;;;;;5035092;28;20055;-83
2021/03/14 13:19:50;;;;;;;4.47;3.08;;;;;;;;;;5034830;28;20022;-83
2021/03/14 13:22:19;;;;;;;11.95;3.42;;;;;;;;;;5035156;28;20029;-83
2021/03/14 13:24:45;;;;;;;6.18;3.38;;;;;;;;;;5034955;28;20108;-83
2021/03/14 13:27:11;;;;;;;3.03;2.70;;;;;;;;;;5034793;28;20025;-83
2021/03/14 13:29:37;;;;;;;4.78;3.42;;;;;;;;;;5033906;28;20049;-84
2021/03/14 13:32:05;;;;;;;5.03;2.78;;;;;;;;;;5034864;28;20029;-84
2021/03/14 13:34:31;;;;;;;3.63;2.65;;;;;;;;;;5034524;28;20033;-83
2021/03/14 13:36:57;;;;;;;2.40;2.20;;;;;;;;;;5034591;28;20029;-84
2021/03/14 13:39:23;;;;;;;7.80;3.08;;;;;;;;;;5034607;28;20491;-84
2021/03/14 13:41:49;;;;;;;4.03;3.53;;;;;;;;;;5034520;28;20029;-84
2021/03/14 13:44:15;;;;;;;3.50;1.92;;;;;;;;;;5034353;28;20036;-83
2021/03/14 13:46:41;;;;;;;3.10;1.98;;;;;;;;;;5034337;28;20052;-84
2021/03/14 13:49:08;;;;;;;3.30;1.80;;;;;;;;;;5034401;28;20034;-83
2021/03/14 13:51:34;;;;;;;3.35;1.70;;;;;;;;;;5034421;28;20487;-83
2021/03/14 13:54:00;;;;;;;5.32;2.22;;;;;;;;;;5034354;28;20047;-84
2021/03/14 13:56:26;;;;;;;4.25;1.52;;;;;;;;;;5034248;28;20381;-83
2021/03/14 13:58:52;;;;;;;3.78;2.75;;;;;;;;;;5034186;28;20488;-84
2021/03/14 14:01:18;;;;;;;5.18;3.05;;;;;;;;;;5034246;28;20032;-83
2021/03/14 14:03:45;;;;;;;5.15;1.83;;;;;;;;;;5034067;28;20038;-83
2021/03/14 14:06:11;;;;;;;3.83;1.83;;;;;;;;;;5034213;28;20033;-83
2021/03/14 14:08:37;;;;;;;2.42;1.40;;;;;;;;;;5034083;28;20400;-83
2021/03/14 14:11:03;;;;;;;4.95;1.98;;;;;;;;;;5033826;28;20060;-83
2021/03/14 14:13:29;;;;;;;3.28;1.75;;;;;;;;;;5034004;28;20108;-82
2021/03/14 14:16:00;;;;;;;2.85;2.00;;;;;;;;;;5033899;28;20048;-83
2021/03/14 14:18:27;;;;;;;2.92;1.75;;;;;;;;;;5033863;28;20111;-83
2021/03/14 14:20:54;;;;;;;6.10;2.72;;;;;;;;;;5034125;28;20032;-83
2021/03/14 14:23:20;;;;;;;5.07;2.00;;;;;;;;;;5033862;28;20055;-82
2021/03/14 14:25:46;;;;;;;4.90;1.50;;;;;;;;;;5032343;28;20449;-83
2021/03/14 14:28:13;;;;;;;1.85;1.40;;;;;;;;;;5034031;28;20029;-83